sensor_id;sensor_type;location;lat;lon;timestamp;pressure;altitude;pressure_sealevel;temperature;humidity
73651;BME280;61944;52.538;6.108;2023-03-16T00:00:18;101743.03;;;4.02;85.40
73651;BME280;61944;52.538;6.108;2023-03-16T00:02:44;101742.91;;;4.07;84.75
73651;BME280;61944;52.538;6.108;2023-03-16T00:05:10;101739.97;;;3.90;85.49
73651;BME280;61944;52.538;6.108;2023-03-16T00:07:37;101733.81;;;3.93;85.79
73651;BME280;61944;52.538;6.108;2023-03-16T00:10:02;101735.09;;;3.73;86.12
73651;BME280;61944;52.538;6.108;2023-03-16T00:12:28;101738.84;;;3.91;86.31
73651;BME280;61944;52.538;6.108;2023-03-16T00:14:54;101743.03;;;4.02;87.67
73651;BME280;61944;52.538;6.108;2023-03-16T00:17:20;101746.44;;;3.85;86.56
73651;BME280;61944;52.538;6.108;2023-03-16T00:19:47;101746.16;;;3.86;86.19
73651;BME280;61944;52.538;6.108;2023-03-16T00:22:14;101737.19;;;3.90;88.14
73651;BME280;61944;52.538;6.108;2023-03-16T00:24:41;101741.63;;;3.77;86.32
73651;BME280;61944;52.538;6.108;2023-03-16T00:27:11;101745.63;;;3.84;86.55
73651;BME280;61944;52.538;6.108;2023-03-16T00:29:46;101744.19;;;3.87;88.46
73651;BME280;61944;52.538;6.108;2023-03-16T00:32:17;101737.28;;;3.98;87.14
73651;BME280;61944;52.538;6.108;2023-03-16T00:34:45;101742.00;;;3.98;87.54
73651;BME280;61944;52.538;6.108;2023-03-16T00:37:12;101734.91;;;4.05;87.37
73651;BME280;61944;52.538;6.108;2023-03-16T00:39:40;101734.03;;;3.82;86.78
73651;BME280;61944;52.538;6.108;2023-03-16T00:42:07;101722.75;;;3.79;87.93
73651;BME280;61944;52.538;6.108;2023-03-16T00:44:34;101715.56;;;3.92;88.39
73651;BME280;61944;52.538;6.108;2023-03-16T00:47:00;101709.13;;;3.82;89.88
73651;BME280;61944;52.538;6.108;2023-03-16T00:49:25;101702.06;;;3.76;89.33
73651;BME280;61944;52.538;6.108;2023-03-16T00:51:51;101703.09;;;3.66;89.67
73651;BME280;61944;52.538;6.108;2023-03-16T00:54:16;101704.53;;;3.64;89.16
73651;BME280;61944;52.538;6.108;2023-03-16T00:56:42;101690.41;;;3.65;89.29
73651;BME280;61944;52.538;6.108;2023-03-16T00:59:07;101688.66;;;3.70;91.29
73651;BME280;61944;52.538;6.108;2023-03-16T01:01:33;101687.50;;;3.71;89.77
73651;BME280;61944;52.538;6.108;2023-03-16T01:03:58;101679.25;;;3.79;90.26
73651;BME280;61944;52.538;6.108;2023-03-16T01:06:24;101676.84;;;3.78;90.81
73651;BME280;61944;52.538;6.108;2023-03-16T01:08:51;101673.22;;;3.77;91.29
73651;BME280;61944;52.538;6.108;2023-03-16T01:11:19;101678.44;;;3.93;91.08
73651;BME280;61944;52.538;6.108;2023-03-16T01:13:45;101674.88;;;3.78;91.86
73651;BME280;61944;52.538;6.108;2023-03-16T01:16:11;101674.13;;;3.86;91.64
73651;BME280;61944;52.538;6.108;2023-03-16T01:18:37;101665.31;;;3.84;89.09
73651;BME280;61944;52.538;6.108;2023-03-16T01:21:05;101666.44;;;3.83;90.51
73651;BME280;61944;52.538;6.108;2023-03-16T01:23:31;101657.88;;;3.71;90.09
73651;BME280;61944;52.538;6.108;2023-03-16T01:25:57;101657.47;;;3.64;90.59
73651;BME280;61944;52.538;6.108;2023-03-16T01:28:25;101644.66;;;3.68;91.31
73651;BME280;61944;52.538;6.108;2023-03-16T01:30:52;101652.22;;;3.76;90.28
73651;BME280;61944;52.538;6.108;2023-03-16T01:33:19;101648.28;;;3.77;91.02
73651;BME280;61944;52.538;6.108;2023-03-16T01:36:13;101638.44;;;3.85;91.48
73651;BME280;61944;52.538;6.108;2023-03-16T01:38:39;101629.63;;;3.83;92.43
73651;BME280;61944;52.538;6.108;2023-03-16T01:41:05;101630.28;;;3.66;91.07
73651;BME280;61944;52.538;6.108;2023-03-16T01:43:33;101627.00;;;3.78;92.21
73651;BME280;61944;52.538;6.108;2023-03-16T01:48:25;101614.25;;;3.77;92.05
73651;BME280;61944;52.538;6.108;2023-03-16T01:50:50;101617.47;;;3.70;92.12
73651;BME280;61944;52.538;6.108;2023-03-16T01:53:17;101615.34;;;3.67;92.55
73651;BME280;61944;52.538;6.108;2023-03-16T01:55:43;101613.06;;;3.69;92.36
73651;BME280;61944;52.538;6.108;2023-03-16T01:58:10;101613.81;;;3.83;92.60
73651;BME280;61944;52.538;6.108;2023-03-16T02:00:39;101614.47;;;3.80;92.77
73651;BME280;61944;52.538;6.108;2023-03-16T02:03:12;101617.09;;;3.85;92.27
73651;BME280;61944;52.538;6.108;2023-03-16T02:05:43;101615.06;;;3.77;91.92
73651;BME280;61944;52.538;6.108;2023-03-16T02:08:10;101609.34;;;3.74;93.59
73651;BME280;61944;52.538;6.108;2023-03-16T02:10:37;101611.63;;;3.72;93.46
73651;BME280;61944;52.538;6.108;2023-03-16T02:13:04;101609.94;;;3.84;93.68
73651;BME280;61944;52.538;6.108;2023-03-16T02:15:29;101604.44;;;3.93;92.64
73651;BME280;61944;52.538;6.108;2023-03-16T02:17:56;101603.13;;;3.91;92.46
73651;BME280;61944;52.538;6.108;2023-03-16T02:22:55;101597.84;;;3.80;92.65
73651;BME280;61944;52.538;6.108;2023-03-16T02:25:24;101604.16;;;3.95;93.21
73651;BME280;61944;52.538;6.108;2023-03-16T02:30:37;101572.66;;;3.68;93.36
73651;BME280;61944;52.538;6.108;2023-03-16T02:33:03;101580.72;;;3.78;94.38
73651;BME280;61944;52.538;6.108;2023-03-16T02:35:32;101571.78;;;3.81;93.33
73651;BME280;61944;52.538;6.108;2023-03-16T02:37:57;101573.94;;;3.84;93.11
73651;BME280;61944;52.538;6.108;2023-03-16T02:40:31;101565.38;;;3.95;92.40
73651;BME280;61944;52.538;6.108;2023-03-16T02:45:30;101571.72;;;3.95;92.33
73651;BME280;61944;52.538;6.108;2023-03-16T02:47:59;101571.53;;;3.92;93.04
73651;BME280;61944;52.538;6.108;2023-03-16T02:50:27;101568.09;;;3.86;93.56
73651;BME280;61944;52.538;6.108;2023-03-16T02:52:53;101561.91;;;3.89;93.51
73651;BME280;61944;52.538;6.108;2023-03-16T02:55:18;101567.19;;;3.99;94.23
73651;BME280;61944;52.538;6.108;2023-03-16T02:57:46;101564.16;;;3.87;93.21
73651;BME280;61944;52.538;6.108;2023-03-16T03:00:11;101564.09;;;4.01;93.67
73651;BME280;61944;52.538;6.108;2023-03-16T03:02:42;101569.00;;;4.04;93.60
73651;BME280;61944;52.538;6.108;2023-03-16T03:05:07;101562.09;;;3.93;93.24
73651;BME280;61944;52.538;6.108;2023-03-16T03:07:32;101561.09;;;3.89;94.56
73651;BME280;61944;52.538;6.108;2023-03-16T03:09:59;101557.38;;;3.93;94.81
73651;BME280;61944;52.538;6.108;2023-03-16T03:12:27;101553.63;;;3.98;94.31
73651;BME280;61944;52.538;6.108;2023-03-16T03:14:52;101558.16;;;3.94;94.31
73651;BME280;61944;52.538;6.108;2023-03-16T03:17:17;101546.47;;;3.97;94.84
73651;BME280;61944;52.538;6.108;2023-03-16T03:19:43;101544.81;;;3.96;94.65
73651;BME280;61944;52.538;6.108;2023-03-16T03:22:08;101543.22;;;3.95;94.30
73651;BME280;61944;52.538;6.108;2023-03-16T03:24:34;101532.38;;;3.84;94.70
73651;BME280;61944;52.538;6.108;2023-03-16T03:26:59;101533.75;;;3.96;95.51
73651;BME280;61944;52.538;6.108;2023-03-16T03:29:26;101528.84;;;3.93;95.37
73651;BME280;61944;52.538;6.108;2023-03-16T03:32:04;101532.59;;;3.88;95.36
73651;BME280;61944;52.538;6.108;2023-03-16T03:34:30;101524.28;;;3.88;95.53
73651;BME280;61944;52.538;6.108;2023-03-16T03:36:56;101531.63;;;3.93;96.01
73651;BME280;61944;52.538;6.108;2023-03-16T03:39:23;101518.41;;;3.90;96.43
73651;BME280;61944;52.538;6.108;2023-03-16T03:41:49;101510.31;;;4.02;95.28
73651;BME280;61944;52.538;6.108;2023-03-16T03:44:14;101509.50;;;4.01;95.91
73651;BME280;61944;52.538;6.108;2023-03-16T03:46:40;101504.59;;;3.98;94.67
73651;BME280;61944;52.538;6.108;2023-03-16T03:49:05;101500.38;;;4.01;95.75
73651;BME280;61944;52.538;6.108;2023-03-16T03:51:31;101507.69;;;3.97;95.84
73651;BME280;61944;52.538;6.108;2023-03-16T03:53:57;101503.16;;;4.01;95.69
73651;BME280;61944;52.538;6.108;2023-03-16T03:56:23;101498.25;;;3.98;95.87
73651;BME280;61944;52.538;6.108;2023-03-16T03:58:48;101494.16;;;3.95;96.90
73651;BME280;61944;52.538;6.108;2023-03-16T04:01:14;101502.78;;;3.94;96.36
73651;BME280;61944;52.538;6.108;2023-03-16T04:03:39;101502.16;;;3.97;96.03
73651;BME280;61944;52.538;6.108;2023-03-16T04:06:05;101504.47;;;4.03;95.94
73651;BME280;61944;52.538;6.108;2023-03-16T04:08:32;101518.94;;;4.00;96.14
73651;BME280;61944;52.538;6.108;2023-03-16T04:10:58;101521.84;;;3.95;96.71
73651;BME280;61944;52.538;6.108;2023-03-16T04:13:23;101502.47;;;3.95;97.08
73651;BME280;61944;52.538;6.108;2023-03-16T04:15:55;101495.16;;;3.99;97.85
73651;BME280;61944;52.538;6.108;2023-03-16T04:18:22;101507.44;;;4.07;96.73
73651;BME280;61944;52.538;6.108;2023-03-16T04:20:47;101496.44;;;3.93;96.57
73651;BME280;61944;52.538;6.108;2023-03-16T04:23:12;101504.88;;;3.88;97.30
73651;BME280;61944;52.538;6.108;2023-03-16T04:25:38;101498.50;;;3.87;97.00
73651;BME280;61944;52.538;6.108;2023-03-16T04:28:03;101503.78;;;3.98;97.20
73651;BME280;61944;52.538;6.108;2023-03-16T04:30:29;101489.97;;;4.06;97.07
73651;BME280;61944;52.538;6.108;2023-03-16T04:32:55;101485.53;;;3.97;97.41
73651;BME280;61944;52.538;6.108;2023-03-16T04:35:20;101494.66;;;3.97;97.38
73651;BME280;61944;52.538;6.108;2023-03-16T04:37:46;101485.88;;;4.04;97.25
73651;BME280;61944;52.538;6.108;2023-03-16T04:40:12;101485.75;;;4.09;96.83
73651;BME280;61944;52.538;6.108;2023-03-16T04:42:40;101475.34;;;4.15;97.46
73651;BME280;61944;52.538;6.108;2023-03-16T04:45:06;101486.25;;;4.11;97.17
73651;BME280;61944;52.538;6.108;2023-03-16T04:47:33;101474.19;;;4.07;96.84
73651;BME280;61944;52.538;6.108;2023-03-16T04:50:02;101477.25;;;4.05;97.33
73651;BME280;61944;52.538;6.108;2023-03-16T04:52:28;101479.56;;;4.12;96.88
73651;BME280;61944;52.538;6.108;2023-03-16T04:54:53;101478.06;;;4.06;97.79
73651;BME280;61944;52.538;6.108;2023-03-16T04:57:19;101474.97;;;3.99;97.45
73651;BME280;61944;52.538;6.108;2023-03-16T04:59:44;101466.81;;;4.02;97.97
73651;BME280;61944;52.538;6.108;2023-03-16T05:02:10;101466.16;;;3.97;98.92
73651;BME280;61944;52.538;6.108;2023-03-16T05:04:35;101473.19;;;4.03;98.37
73651;BME280;61944;52.538;6.108;2023-03-16T05:07:01;101465.03;;;4.06;97.78
73651;BME280;61944;52.538;6.108;2023-03-16T05:09:26;101472.69;;;4.01;98.75
73651;BME280;61944;52.538;6.108;2023-03-16T05:11:52;101461.28;;;4.02;97.83
73651;BME280;61944;52.538;6.108;2023-03-16T05:14:17;101462.72;;;4.00;98.81
73651;BME280;61944;52.538;6.108;2023-03-16T05:16:42;101463.53;;;4.00;99.84
73651;BME280;61944;52.538;6.108;2023-03-16T05:19:08;101456.91;;;4.10;98.51
73651;BME280;61944;52.538;6.108;2023-03-16T05:21:33;101460.84;;;4.09;98.96
73651;BME280;61944;52.538;6.108;2023-03-16T05:24:02;101459.19;;;4.08;98.60
73651;BME280;61944;52.538;6.108;2023-03-16T05:26:28;101450.19;;;4.02;99.33
73651;BME280;61944;52.538;6.108;2023-03-16T05:28:53;101451.19;;;4.06;98.92
73651;BME280;61944;52.538;6.108;2023-03-16T05:31:19;101454.22;;;3.96;99.60
73651;BME280;61944;52.538;6.108;2023-03-16T05:33:44;101448.38;;;3.98;99.61
73651;BME280;61944;52.538;6.108;2023-03-16T05:36:10;101458.19;;;4.04;99.48
73651;BME280;61944;52.538;6.108;2023-03-16T05:38:37;101464.56;;;4.13;99.59
73651;BME280;61944;52.538;6.108;2023-03-16T05:41:03;101470.75;;;4.10;99.54
73651;BME280;61944;52.538;6.108;2023-03-16T05:43:30;101477.44;;;4.09;99.30
73651;BME280;61944;52.538;6.108;2023-03-16T05:45:55;101468.47;;;4.03;99.67
73651;BME280;61944;52.538;6.108;2023-03-16T05:48:22;101469.75;;;4.06;100.00
73651;BME280;61944;52.538;6.108;2023-03-16T05:50:50;101471.03;;;4.00;100.00
73651;BME280;61944;52.538;6.108;2023-03-16T05:53:16;101461.66;;;4.10;100.00
73651;BME280;61944;52.538;6.108;2023-03-16T05:55:41;101457.69;;;4.02;100.00
73651;BME280;61944;52.538;6.108;2023-03-16T05:58:06;101447.94;;;4.13;100.00
73651;BME280;61944;52.538;6.108;2023-03-16T06:00:32;101431.28;;;4.04;100.00
73651;BME280;61944;52.538;6.108;2023-03-16T06:02:57;101432.44;;;4.03;100.00
73651;BME280;61944;52.538;6.108;2023-03-16T06:05:22;101439.09;;;4.02;100.00
73651;BME280;61944;52.538;6.108;2023-03-16T06:07:50;101440.78;;;4.12;100.00
73651;BME280;61944;52.538;6.108;2023-03-16T06:10:16;101431.31;;;4.13;100.00
73651;BME280;61944;52.538;6.108;2023-03-16T06:12:41;101442.09;;;4.15;100.00
73651;BME280;61944;52.538;6.108;2023-03-16T06:15:08;101441.25;;;4.05;100.00
73651;BME280;61944;52.538;6.108;2023-03-16T06:17:35;101443.88;;;4.11;100.00
73651;BME280;61944;52.538;6.108;2023-03-16T06:20:00;101438.00;;;4.12;100.00
73651;BME280;61944;52.538;6.108;2023-03-16T06:22:26;101435.75;;;4.23;100.00
73651;BME280;61944;52.538;6.108;2023-03-16T06:24:52;101431.66;;;4.12;99.75
73651;BME280;61944;52.538;6.108;2023-03-16T06:27:18;101436.56;;;4.15;99.92
73651;BME280;61944;52.538;6.108;2023-03-16T06:29:49;101443.09;;;4.27;99.00
73651;BME280;61944;52.538;6.108;2023-03-16T06:32:14;101433.16;;;4.18;99.29
73651;BME280;61944;52.538;6.108;2023-03-16T06:34:40;101433.00;;;4.23;99.28
73651;BME280;61944;52.538;6.108;2023-03-16T06:37:06;101435.94;;;4.18;100.00
73651;BME280;61944;52.538;6.108;2023-03-16T06:39:31;101431.81;;;4.15;99.59
73651;BME280;61944;52.538;6.108;2023-03-16T06:41:56;101434.97;;;4.22;99.86
73651;BME280;61944;52.538;6.108;2023-03-16T06:44:22;101433.00;;;4.32;99.88
73651;BME280;61944;52.538;6.108;2023-03-16T06:46:47;101424.69;;;4.32;99.02
73651;BME280;61944;52.538;6.108;2023-03-16T06:49:13;101431.91;;;4.33;98.90
73651;BME280;61944;52.538;6.108;2023-03-16T06:51:38;101429.13;;;4.33;99.02
73651;BME280;61944;52.538;6.108;2023-03-16T06:54:03;101431.41;;;4.31;98.94
73651;BME280;61944;52.538;6.108;2023-03-16T06:56:29;101428.47;;;4.36;98.58
73651;BME280;61944;52.538;6.108;2023-03-16T06:58:56;101428.97;;;4.38;98.49
73651;BME280;61944;52.538;6.108;2023-03-16T07:01:22;101427.97;;;4.42;98.91
73651;BME280;61944;52.538;6.108;2023-03-16T07:03:48;101431.63;;;4.78;99.88
73651;BME280;61944;52.538;6.108;2023-03-16T07:06:13;101433.53;;;4.51;99.10
73651;BME280;61944;52.538;6.108;2023-03-16T07:08:38;101436.00;;;4.53;100.00
73651;BME280;61944;52.538;6.108;2023-03-16T07:11:04;101420.53;;;4.95;97.65
73651;BME280;61944;52.538;6.108;2023-03-16T07:13:29;101430.63;;;4.47;100.00
73651;BME280;61944;52.538;6.108;2023-03-16T07:15:55;101421.63;;;4.42;100.00
73651;BME280;61944;52.538;6.108;2023-03-16T07:18:20;101424.44;;;4.59;100.00
73651;BME280;61944;52.538;6.108;2023-03-16T07:20:46;101426.72;;;4.57;100.00
73651;BME280;61944;52.538;6.108;2023-03-16T07:23:11;101422.63;;;4.55;100.00
73651;BME280;61944;52.538;6.108;2023-03-16T07:25:37;101428.19;;;4.55;100.00
73651;BME280;61944;52.538;6.108;2023-03-16T07:28:03;101431.25;;;4.53;100.00
73651;BME280;61944;52.538;6.108;2023-03-16T07:30:29;101439.44;;;4.58;100.00
73651;BME280;61944;52.538;6.108;2023-03-16T07:32:55;101436.19;;;4.56;100.00
73651;BME280;61944;52.538;6.108;2023-03-16T07:35:20;101435.69;;;4.63;100.00
73651;BME280;61944;52.538;6.108;2023-03-16T07:37:46;101436.84;;;4.62;100.00
73651;BME280;61944;52.538;6.108;2023-03-16T07:40:12;101435.53;;;4.59;100.00
73651;BME280;61944;52.538;6.108;2023-03-16T07:42:38;101435.88;;;4.58;100.00
73651;BME280;61944;52.538;6.108;2023-03-16T07:45:04;101434.41;;;4.60;100.00
73651;BME280;61944;52.538;6.108;2023-03-16T07:47:31;101431.13;;;4.58;100.00
73651;BME280;61944;52.538;6.108;2023-03-16T07:49:58;101428.50;;;4.53;100.00
73651;BME280;61944;52.538;6.108;2023-03-16T07:52:23;101419.53;;;4.56;100.00
73651;BME280;61944;52.538;6.108;2023-03-16T07:54:49;101427.69;;;4.61;100.00
73651;BME280;61944;52.538;6.108;2023-03-16T07:57:14;101434.72;;;4.59;100.00
73651;BME280;61944;52.538;6.108;2023-03-16T07:59:39;101432.41;;;4.52;100.00
73651;BME280;61944;52.538;6.108;2023-03-16T08:02:09;101432.94;;;4.63;100.00
73651;BME280;61944;52.538;6.108;2023-03-16T08:04:35;101430.63;;;4.56;100.00
73651;BME280;61944;52.538;6.108;2023-03-16T08:07:01;101431.13;;;4.58;100.00
73651;BME280;61944;52.538;6.108;2023-03-16T08:09:26;101427.88;;;4.65;100.00
73651;BME280;61944;52.538;6.108;2023-03-16T08:11:52;101427.56;;;4.66;100.00
73651;BME280;61944;52.538;6.108;2023-03-16T08:14:18;101425.78;;;4.71;100.00
73651;BME280;61944;52.538;6.108;2023-03-16T08:16:43;101425.78;;;4.71;100.00
73651;BME280;61944;52.538;6.108;2023-03-16T08:19:08;101427.56;;;4.66;100.00
73651;BME280;61944;52.538;6.108;2023-03-16T08:21:35;101417.75;;;4.69;100.00
73651;BME280;61944;52.538;6.108;2023-03-16T08:24:01;101422.81;;;4.76;100.00
73651;BME280;61944;52.538;6.108;2023-03-16T08:26:29;101419.25;;;4.75;100.00
73651;BME280;61944;52.538;6.108;2023-03-16T08:28:55;101421.53;;;4.73;100.00
73651;BME280;61944;52.538;6.108;2023-03-16T08:31:20;101421.22;;;4.75;100.00
73651;BME280;61944;52.538;6.108;2023-03-16T08:33:47;101420.53;;;4.78;100.00
73651;BME280;61944;52.538;6.108;2023-03-16T08:36:14;101417.75;;;4.69;100.00
73651;BME280;61944;52.538;6.108;2023-03-16T08:38:40;101424.78;;;4.84;100.00
73651;BME280;61944;52.538;6.108;2023-03-16T08:41:07;101424.78;;;4.84;100.00
73651;BME280;61944;52.538;6.108;2023-03-16T08:43:33;101408.47;;;4.82;100.00
73651;BME280;61944;52.538;6.108;2023-03-16T08:45:58;101415.16;;;4.90;100.00
73651;BME280;61944;52.538;6.108;2023-03-16T08:48:24;101417.63;;;4.92;100.00
73651;BME280;61944;52.538;6.108;2023-03-16T08:50:50;101413.19;;;4.91;100.00
73651;BME280;61944;52.538;6.108;2023-03-16T08:53:16;101416.63;;;4.96;100.00
73651;BME280;61944;52.538;6.108;2023-03-16T08:55:43;101411.91;;;4.88;100.00
73651;BME280;61944;52.538;6.108;2023-03-16T08:58:10;101432.13;;;4.88;100.00
73651;BME280;61944;52.538;6.108;2023-03-16T09:00:37;101420.41;;;4.92;100.00
73651;BME280;61944;52.538;6.108;2023-03-16T09:03:02;101406.84;;;4.90;100.00
73651;BME280;61944;52.538;6.108;2023-03-16T09:05:29;101414.00;;;4.91;100.00
73651;BME280;61944;52.538;6.108;2023-03-16T09:07:54;101422.50;;;4.95;100.00
73651;BME280;61944;52.538;6.108;2023-03-16T09:10:21;101412.72;;;4.97;100.00
73651;BME280;61944;52.538;6.108;2023-03-16T09:12:48;101404.88;;;4.99;100.00
73651;BME280;61944;52.538;6.108;2023-03-16T09:15:15;101405.38;;;5.01;100.00
73651;BME280;61944;52.538;6.108;2023-03-16T09:17:40;101397.03;;;5.01;100.00
73651;BME280;61944;52.538;6.108;2023-03-16T09:20:08;101395.72;;;5.07;100.00
73651;BME280;61944;52.538;6.108;2023-03-16T09:22:35;101390.66;;;5.09;100.00
73651;BME280;61944;52.538;6.108;2023-03-16T09:25:11;101396.22;;;5.18;100.00
73651;BME280;61944;52.538;6.108;2023-03-16T09:27:37;101398.81;;;5.23;100.00
73651;BME280;61944;52.538;6.108;2023-03-16T09:30:04;101392.47;;;5.23;100.00
73651;BME280;61944;52.538;6.108;2023-03-16T09:32:29;101391.00;;;5.25;100.00
73651;BME280;61944;52.538;6.108;2023-03-16T09:34:55;101391.97;;;5.29;100.00
73651;BME280;61944;52.538;6.108;2023-03-16T09:37:21;101389.31;;;5.33;100.00
73651;BME280;61944;52.538;6.108;2023-03-16T09:39:47;101374.47;;;5.29;100.00
73651;BME280;61944;52.538;6.108;2023-03-16T09:42:25;101387.53;;;5.37;100.00
73651;BME280;61944;52.538;6.108;2023-03-16T09:47:27;101368.69;;;5.52;100.00
73651;BME280;61944;52.538;6.108;2023-03-16T09:49:58;101369.50;;;5.61;100.00
73651;BME280;61944;52.538;6.108;2023-03-16T09:53:16;101369.81;;;5.68;100.00
73651;BME280;61944;52.538;6.108;2023-03-16T09:55:30;101364.03;;;5.73;100.00
73651;BME280;61944;52.538;6.108;2023-03-16T09:57:57;101358.97;;;5.75;100.00
73651;BME280;61944;52.538;6.108;2023-03-16T10:05:48;101359.41;;;5.86;100.00
73651;BME280;61944;52.538;6.108;2023-03-16T10:08:21;101369.38;;;5.96;100.00
73651;BME280;61944;52.538;6.108;2023-03-16T10:11:02;101360.38;;;5.99;100.00
73651;BME280;61944;52.538;6.108;2023-03-16T10:16:02;101356.94;;;6.02;100.00
73651;BME280;61944;52.538;6.108;2023-03-16T10:18:34;101365.41;;;6.05;100.00
73651;BME280;61944;52.538;6.108;2023-03-16T10:21:04;101369.81;;;6.06;100.00
73651;BME280;61944;52.538;6.108;2023-03-16T10:23:31;101366.69;;;6.08;100.00
73651;BME280;61944;52.538;6.108;2023-03-16T10:26:00;101356.53;;;6.12;100.00
73651;BME280;61944;52.538;6.108;2023-03-16T10:28:31;101363.72;;;6.13;100.00
73651;BME280;61944;52.538;6.108;2023-03-16T10:30:58;101359.81;;;6.14;100.00
73651;BME280;61944;52.538;6.108;2023-03-16T10:33:32;101356.34;;;6.17;100.00
73651;BME280;61944;52.538;6.108;2023-03-16T10:36:11;101355.84;;;6.15;100.00
73651;BME280;61944;52.538;6.108;2023-03-16T10:41:31;101351.94;;;6.16;100.00
73651;BME280;61944;52.538;6.108;2023-03-16T10:49:05;101351.16;;;6.37;100.00
73651;BME280;61944;52.538;6.108;2023-03-16T10:51:33;101359.78;;;6.44;100.00
73651;BME280;61944;52.538;6.108;2023-03-16T10:54:31;101346.13;;;6.51;100.00
73651;BME280;61944;52.538;6.108;2023-03-16T10:56:58;101349.59;;;6.48;100.00
73651;BME280;61944;52.538;6.108;2023-03-16T11:01:53;101339.38;;;6.61;100.00
73651;BME280;61944;52.538;6.108;2023-03-16T11:04:18;101341.94;;;6.66;100.00
73651;BME280;61944;52.538;6.108;2023-03-16T11:06:54;101333.78;;;6.82;100.00
73651;BME280;61944;52.538;6.108;2023-03-16T11:09:23;101330.66;;;6.83;100.00
73651;BME280;61944;52.538;6.108;2023-03-16T11:11:50;101335.81;;;6.94;100.00
73651;BME280;61944;52.538;6.108;2023-03-16T11:14:22;101331.72;;;6.91;100.00
73651;BME280;61944;52.538;6.108;2023-03-16T11:17:03;101329.56;;;6.97;100.00
73651;BME280;61944;52.538;6.108;2023-03-16T11:19:32;101335.72;;;7.02;100.00
73651;BME280;61944;52.538;6.108;2023-03-16T11:22:21;101323.69;;;7.10;100.00
73651;BME280;61944;52.538;6.108;2023-03-16T11:27:45;101320.91;;;7.23;100.00
73651;BME280;61944;52.538;6.108;2023-03-16T11:30:32;101309.81;;;7.35;100.00
73651;BME280;61944;52.538;6.108;2023-03-16T11:32:59;101302.31;;;7.60;100.00
73651;BME280;61944;52.538;6.108;2023-03-16T11:41:22;101289.19;;;7.98;100.00
73651;BME280;61944;52.538;6.108;2023-03-16T11:43:56;101291.03;;;8.06;98.30
73651;BME280;61944;52.538;6.108;2023-03-16T11:46:30;101293.22;;;8.12;99.68
73651;BME280;61944;52.538;6.108;2023-03-16T11:51:34;101286.09;;;8.27;97.44
73651;BME280;61944;52.538;6.108;2023-03-16T11:54:46;101284.97;;;8.16;96.19
73651;BME280;61944;52.538;6.108;2023-03-16T12:10:23;101260.19;;;8.27;95.73
73651;BME280;61944;52.538;6.108;2023-03-16T12:15:47;101260.66;;;8.29;92.99
73651;BME280;61944;52.538;6.108;2023-03-16T12:18:18;101247.50;;;8.29;93.23
73651;BME280;61944;52.538;6.108;2023-03-16T12:21:11;101252.75;;;8.31;93.77
73651;BME280;61944;52.538;6.108;2023-03-16T12:23:55;101255.63;;;8.34;93.71
73651;BME280;61944;52.538;6.108;2023-03-16T12:26:23;101238.66;;;8.40;95.29
73651;BME280;61944;52.538;6.108;2023-03-16T12:28:51;101243.53;;;8.43;93.04
73651;BME280;61944;52.538;6.108;2023-03-16T12:39:59;101226.31;;;8.53;91.70
73651;BME280;61944;52.538;6.108;2023-03-16T12:42:53;101222.72;;;8.68;90.29
73651;BME280;61944;52.538;6.108;2023-03-16T12:46:02;101211.31;;;8.73;89.29
73651;BME280;61944;52.538;6.108;2023-03-16T12:48:31;101212.88;;;8.87;89.27
73651;BME280;61944;52.538;6.108;2023-03-16T12:51:02;101214.13;;;8.89;89.33
73651;BME280;61944;52.538;6.108;2023-03-16T12:56:18;101206.03;;;9.00;87.70
73651;BME280;61944;52.538;6.108;2023-03-16T12:58:47;101201.34;;;9.04;86.86
73651;BME280;61944;52.538;6.108;2023-03-16T13:01:17;101200.81;;;9.14;86.92
73651;BME280;61944;52.538;6.108;2023-03-16T13:03:46;101201.63;;;9.47;85.87
73651;BME280;61944;52.538;6.108;2023-03-16T13:06:19;101194.66;;;9.56;86.71
73651;BME280;61944;52.538;6.108;2023-03-16T13:08:50;101190.06;;;9.48;85.24
73651;BME280;61944;52.538;6.108;2023-03-16T13:11:17;101187.28;;;9.48;84.75
73651;BME280;61944;52.538;6.108;2023-03-16T13:16:28;101181.13;;;9.59;83.51
73651;BME280;61944;52.538;6.108;2023-03-16T13:18:55;101172.06;;;9.46;82.02
73651;BME280;61944;52.538;6.108;2023-03-16T13:21:40;101167.41;;;9.34;82.41
73651;BME280;61944;52.538;6.108;2023-03-16T13:26:49;101163.19;;;9.60;81.86
73651;BME280;61944;52.538;6.108;2023-03-16T13:29:27;101151.47;;;9.89;80.65
73651;BME280;61944;52.538;6.108;2023-03-16T13:31:55;101150.16;;;9.83;80.40
73651;BME280;61944;52.538;6.108;2023-03-16T13:34:29;101139.53;;;9.92;80.29
73651;BME280;61944;52.538;6.108;2023-03-16T13:36:56;101126.38;;;10.12;79.34
73651;BME280;61944;52.538;6.108;2023-03-16T13:39:27;101115.56;;;10.30;78.19
73651;BME280;61944;52.538;6.108;2023-03-16T13:44:28;101115.72;;;10.37;76.79
73651;BME280;61944;52.538;6.108;2023-03-16T13:46:54;101095.09;;;10.46;77.49
73651;BME280;61944;52.538;6.108;2023-03-16T13:49:20;101099.59;;;10.54;77.82
73651;BME280;61944;52.538;6.108;2023-03-16T13:51:46;101101.47;;;10.46;77.39
73651;BME280;61944;52.538;6.108;2023-03-16T13:54:21;101116.88;;;10.36;77.28
73651;BME280;61944;52.538;6.108;2023-03-16T13:56:57;101122.44;;;10.56;78.96
73651;BME280;61944;52.538;6.108;2023-03-16T13:59:24;101106.19;;;10.42;77.30
73651;BME280;61944;52.538;6.108;2023-03-16T14:01:58;101112.47;;;10.35;76.36
73651;BME280;61944;52.538;6.108;2023-03-16T14:04:27;101123.34;;;10.41;74.63
73651;BME280;61944;52.538;6.108;2023-03-16T14:06:56;101105.31;;;10.38;75.78
73651;BME280;61944;52.538;6.108;2023-03-16T14:09:24;101108.63;;;10.44;76.77
73651;BME280;61944;52.538;6.108;2023-03-16T14:11:51;101104.66;;;10.45;74.02
73651;BME280;61944;52.538;6.108;2023-03-16T14:14:27;101097.44;;;10.44;75.47
73651;BME280;61944;52.538;6.108;2023-03-16T14:16:59;101106.50;;;10.60;73.77